createdAt,value
2018-09-19T00:00:38.491Z,17.93
2018-09-19T00:01:38.442Z,17.91
2018-09-19T00:02:38.393Z,17.82
2018-09-19T00:03:38.375Z,17.78
2018-09-19T00:04:38.295Z,17.89
2018-09-19T00:05:38.256Z,17.93
2018-09-19T00:06:38.212Z,17.91
2018-09-19T00:07:38.160Z,17.83
2018-09-19T00:08:38.135Z,17.80
2018-09-19T00:09:38.059Z,17.80
2018-09-19T00:10:38.016Z,17.86
2018-09-19T00:11:37.968Z,17.79
2018-09-19T00:12:37.925Z,17.73
2018-09-19T00:13:37.896Z,17.71
2018-09-19T00:14:37.831Z,17.60
2018-09-19T00:15:37.776Z,17.67
2018-09-19T00:16:37.752Z,17.64
2018-09-19T00:17:37.677Z,17.64
2018-09-19T00:18:37.658Z,17.64
2018-09-19T00:19:37.587Z,17.67
2018-09-19T00:20:37.539Z,17.63
2018-09-19T00:21:37.492Z,17.64
2018-09-19T00:22:37.442Z,17.59
2018-09-19T00:23:37.428Z,17.53
2018-09-19T00:24:37.349Z,17.59
2018-09-19T00:25:37.296Z,17.59
2018-09-19T00:26:37.257Z,17.60
2018-09-19T00:27:37.214Z,17.56
2018-09-19T00:28:37.193Z,17.59
2018-09-19T00:29:37.114Z,17.63
2018-09-19T00:30:37.062Z,17.64
2018-09-19T00:31:37.015Z,17.64
2018-09-19T00:32:36.966Z,17.57
2018-09-19T00:33:36.917Z,17.59
2018-09-19T00:34:36.893Z,17.59
2018-09-19T00:35:36.834Z,17.59
2018-09-19T00:36:36.775Z,17.64
2018-09-19T00:37:36.730Z,17.63
2018-09-19T00:38:36.682Z,17.57
2018-09-19T00:39:36.660Z,17.59
2018-09-19T00:40:36.583Z,17.54
2018-09-19T00:41:36.561Z,17.51
2018-09-19T00:42:36.487Z,17.48
2018-09-19T00:43:36.442Z,17.53
2018-09-19T00:44:36.435Z,17.48
2018-09-19T00:45:36.346Z,17.42
2018-09-19T00:46:36.294Z,17.39
2018-09-19T00:47:36.253Z,17.38
2018-09-19T00:48:36.207Z,17.37
2018-09-19T00:49:36.179Z,17.39
2018-09-19T00:50:36.108Z,17.30
2018-09-19T00:51:36.057Z,17.31
2018-09-19T00:52:36.013Z,17.27
2018-09-19T00:53:35.968Z,17.29
2018-09-19T00:54:35.940Z,17.38
2018-09-19T00:55:35.869Z,17.29
2018-09-19T00:56:35.820Z,17.31
2018-09-19T00:57:35.774Z,17.27
2018-09-19T00:58:35.722Z,17.20
2018-09-19T00:59:35.700Z,17.20
2018-09-19T01:00:35.636Z,17.16
2018-09-19T01:01:35.577Z,17.12
2018-09-19T01:02:35.536Z,17.09
2018-09-19T01:03:35.486Z,17.14
2018-09-19T01:04:35.464Z,17.16
2018-09-19T01:05:35.391Z,17.16
2018-09-19T01:06:35.340Z,17.20
2018-09-19T01:07:35.305Z,17.06
2018-09-19T01:08:35.257Z,17.09
2018-09-19T01:09:35.220Z,17.06
2018-09-19T01:10:35.146Z,17.11
2018-09-19T01:11:35.099Z,17.08
2018-09-19T01:12:35.058Z,17.08
2018-09-19T01:13:35.006Z,17.08
2018-09-19T01:14:34.989Z,17.08
2018-09-19T01:15:34.910Z,17.08
2018-09-19T01:16:34.863Z,17.02
2018-09-19T01:17:34.816Z,16.98
2018-09-19T01:18:34.772Z,16.86
2018-09-19T01:19:34.718Z,16.89
2018-09-19T01:20:34.693Z,16.87
2018-09-19T01:21:34.623Z,16.98
2018-09-19T01:22:34.577Z,16.96
2018-09-19T01:23:34.528Z,16.91
2018-09-19T01:24:34.478Z,16.83
2018-09-19T01:25:34.453Z,16.89
2018-09-19T01:26:34.390Z,16.86
2018-09-19T01:27:34.338Z,16.82
2018-09-19T01:28:34.289Z,16.83
2018-09-19T01:29:34.245Z,16.82
2018-09-19T01:30:34.215Z,16.76
2018-09-19T01:31:34.141Z,16.72
2018-09-19T01:32:34.093Z,16.74
2018-09-19T01:33:34.050Z,16.71
2018-09-19T01:34:34.000Z,16.74
2018-09-19T01:35:33.975Z,16.71
2018-09-19T01:36:33.904Z,16.68
2018-09-19T01:37:33.855Z,16.75
2018-09-19T01:38:33.810Z,16.71
2018-09-19T01:39:33.757Z,16.72
2018-09-19T01:40:33.737Z,16.74
2018-09-19T01:41:33.663Z,16.72
2018-09-19T01:42:33.619Z,16.65
2018-09-19T01:43:33.571Z,16.61
2018-09-19T01:44:33.518Z,16.71
2018-09-19T01:45:33.496Z,16.65
2018-09-19T01:46:33.419Z,16.64
2018-09-19T01:47:33.378Z,16.64
2018-09-19T01:48:33.332Z,16.61
2018-09-19T01:49:33.280Z,16.61
2018-09-19T01:50:33.256Z,16.59
2018-09-19T01:51:33.181Z,16.59
2018-09-19T01:52:33.136Z,16.59
2018-09-19T01:53:33.089Z,16.54
2018-09-19T01:54:33.039Z,16.50
2018-09-19T01:55:33.018Z,16.54
2018-09-19T01:56:32.935Z,16.57
2018-09-19T01:57:32.892Z,16.43
2018-09-19T01:58:32.844Z,16.44
2018-09-19T01:59:32.796Z,16.46
2018-09-19T02:00:32.787Z,16.39
2018-09-19T02:01:32.698Z,16.44
2018-09-19T02:02:32.651Z,16.46
2018-09-19T02:03:32.608Z,16.36
2018-09-19T02:04:32.567Z,16.38
2018-09-19T02:05:32.518Z,16.36
2018-09-19T02:06:32.523Z,16.34
2018-09-19T02:07:32.425Z,16.29
2018-09-19T02:08:32.370Z,16.32
2018-09-19T02:09:32.309Z,16.31
2018-09-19T02:10:32.268Z,16.35
2018-09-19T02:11:32.243Z,16.26
2018-09-19T02:12:32.172Z,16.38
2018-09-19T02:13:32.119Z,16.32
2018-09-19T02:14:32.074Z,16.35
2018-09-19T02:15:32.024Z,16.34
2018-09-19T02:16:32.000Z,16.38
2018-09-19T02:17:31.927Z,16.41
2018-09-19T02:18:31.882Z,16.39
2018-09-19T02:19:31.856Z,16.34
2018-09-19T02:20:31.791Z,16.36
2018-09-19T02:21:31.789Z,16.32
2018-09-19T02:22:31.684Z,16.35
2018-09-19T02:23:31.636Z,16.36
2018-09-19T02:24:31.589Z,16.46
2018-09-19T02:25:31.539Z,16.46
2018-09-19T02:26:31.516Z,16.41
2018-09-19T02:27:31.443Z,16.41
2018-09-19T02:28:31.401Z,16.47
2018-09-19T02:29:31.351Z,16.35
2018-09-19T02:30:31.300Z,16.38
2018-09-19T02:31:31.292Z,16.44
2018-09-19T02:32:31.228Z,16.47
2018-09-19T02:33:31.157Z,16.35
2018-09-19T02:34:31.106Z,16.46
2018-09-19T02:35:31.058Z,16.51
2018-09-19T02:36:31.039Z,16.44
2018-09-19T02:37:30.959Z,16.47
2018-09-19T02:38:30.912Z,16.47
2018-09-19T02:39:30.867Z,16.49
2018-09-19T02:40:30.823Z,16.44
2018-09-19T02:41:30.815Z,16.36
2018-09-19T02:42:30.724Z,16.41
2018-09-19T02:43:30.671Z,16.47
2018-09-19T02:44:30.624Z,16.46
2018-09-19T02:45:30.578Z,16.49
2018-09-19T02:46:30.530Z,16.47
2018-09-19T02:47:30.506Z,16.46
2018-09-19T02:48:30.429Z,16.46
2018-09-19T02:49:30.377Z,16.44
2018-09-19T02:50:30.350Z,16.50
2018-09-19T02:51:30.284Z,16.50
2018-09-19T02:52:30.260Z,16.35
2018-09-19T02:53:30.190Z,16.49
2018-09-19T02:54:30.146Z,16.41
2018-09-19T02:55:30.099Z,16.49
2018-09-19T02:56:30.040Z,16.46
2018-09-19T02:57:30.022Z,16.43
2018-09-19T02:58:29.990Z,16.44
2018-09-19T02:59:29.903Z,16.41
2018-09-19T03:00:29.853Z,16.47
2018-09-19T03:01:29.802Z,16.35
2018-09-19T03:02:29.794Z,16.43
2018-09-19T03:03:29.710Z,16.49
2018-09-19T03:04:29.659Z,16.41
2018-09-19T03:05:29.612Z,16.41
2018-09-19T03:06:29.562Z,16.53
2018-09-19T03:07:29.541Z,16.44
2018-09-19T03:08:29.468Z,16.49
2018-09-19T03:09:29.417Z,16.34
2018-09-19T03:10:29.374Z,16.39
2018-09-19T03:11:29.319Z,16.36
2018-09-19T03:12:29.300Z,16.43
2018-09-19T03:13:29.224Z,16.36
2018-09-19T03:14:29.176Z,16.38
2018-09-19T03:15:29.129Z,16.39
2018-09-19T03:16:29.079Z,16.41
2018-09-19T03:17:29.161Z,16.46
2018-09-19T03:18:28.987Z,16.39
2018-09-19T03:19:28.936Z,16.44
2018-09-19T03:20:28.887Z,16.51
2018-09-19T03:21:28.839Z,16.49
2018-09-19T03:22:28.819Z,16.43
2018-09-19T03:23:28.745Z,16.49
2018-09-19T03:24:28.702Z,16.47
2018-09-19T03:25:28.648Z,16.39
2018-09-19T03:26:28.596Z,16.39
2018-09-19T03:27:28.575Z,16.39
2018-09-19T03:28:28.504Z,16.46
2018-09-19T03:29:28.455Z,16.53
2018-09-19T03:30:28.409Z,16.39
2018-09-19T03:31:28.361Z,16.49
2018-09-19T03:32:28.350Z,16.38
2018-09-19T03:33:28.260Z,16.43
2018-09-19T03:34:28.222Z,16.36
2018-09-19T03:35:28.262Z,16.43
2018-09-19T03:36:28.120Z,16.34
2018-09-19T03:37:28.065Z,16.38
2018-09-19T03:38:28.041Z,16.31
2018-09-19T03:39:27.971Z,16.39
2018-09-19T03:40:27.922Z,16.39
2018-09-19T03:41:27.873Z,16.20
2018-09-19T03:42:27.829Z,16.36
2018-09-19T03:43:27.807Z,16.26
2018-09-19T03:44:27.730Z,16.29
2018-09-19T03:45:27.676Z,16.29
2018-09-19T03:46:27.631Z,16.32
2018-09-19T03:47:27.582Z,16.31
2018-09-19T03:48:27.570Z,16.17
2018-09-19T03:49:27.491Z,16.29
2018-09-19T03:50:27.452Z,16.17
2018-09-19T03:51:27.399Z,16.20
2018-09-19T03:52:27.341Z,16.24
2018-09-19T03:53:27.316Z,16.20
2018-09-19T03:54:27.252Z,16.10
2018-09-19T03:55:27.200Z,16.09
2018-09-19T03:56:27.152Z,16.09
2018-09-19T03:57:27.101Z,16.10
2018-09-19T03:58:27.080Z,16.10
2018-09-19T03:59:27.006Z,16.12
2018-09-19T04:00:26.956Z,16.09
2018-09-19T04:01:26.908Z,16.08
2018-09-19T04:02:26.866Z,16.08
2018-09-19T04:03:26.839Z,16.10
2018-09-19T04:04:26.761Z,16.08
2018-09-19T04:05:26.720Z,16.10
2018-09-19T04:06:26.663Z,16.09
2018-09-19T04:07:26.617Z,16.01
2018-09-19T04:08:26.593Z,16.06
2018-09-19T04:09:26.526Z,16.01
2018-09-19T04:10:26.474Z,15.97
2018-09-19T04:11:26.421Z,16.09
2018-09-19T04:12:26.373Z,16.05
2018-09-19T04:13:26.354Z,16.10
2018-09-19T04:14:26.282Z,16.01
2018-09-19T04:15:26.241Z,16.02
2018-09-19T04:16:26.184Z,16.02
2018-09-19T04:17:26.131Z,16.05
2018-09-19T04:18:26.134Z,16.01
2018-09-19T04:19:26.038Z,16.05
2018-09-19T04:20:25.989Z,16.01
2018-09-19T04:21:25.941Z,15.91
2018-09-19T04:22:25.888Z,16.01
2018-09-19T04:23:25.842Z,16.01
2018-09-19T04:24:25.825Z,15.92
2018-09-19T04:25:25.745Z,15.95
2018-09-19T04:26:25.697Z,15.90
2018-09-19T04:27:25.654Z,15.94
2018-09-19T04:28:25.597Z,15.83
2018-09-19T04:29:25.581Z,15.83
2018-09-19T04:30:25.501Z,15.88
2018-09-19T04:31:25.453Z,15.87
2018-09-19T04:32:25.441Z,15.77
2018-09-19T04:33:25.355Z,15.88
2018-09-19T04:34:25.334Z,15.92
2018-09-19T04:35:25.260Z,15.83
2018-09-19T04:36:25.212Z,15.91
2018-09-19T04:37:25.167Z,15.95
2018-09-19T04:38:25.113Z,15.95
2018-09-19T04:39:25.089Z,15.97
2018-09-19T04:40:25.019Z,15.97
2018-09-19T04:41:24.971Z,15.87
2018-09-19T04:42:24.931Z,16.01
2018-09-19T04:43:24.869Z,15.97
2018-09-19T04:44:24.849Z,15.92
2018-09-19T04:45:24.773Z,15.85
2018-09-19T04:46:24.730Z,15.97
2018-09-19T04:47:24.677Z,15.91
2018-09-19T04:48:24.629Z,15.87
2018-09-19T04:49:24.609Z,16.05
2018-09-19T04:50:24.553Z,15.91
2018-09-19T04:51:24.520Z,16.00
2018-09-19T04:52:24.442Z,15.97
2018-09-19T04:53:24.407Z,15.85
2018-09-19T04:54:24.368Z,15.98
2018-09-19T04:55:24.305Z,16.01
2018-09-19T04:56:24.245Z,16.00
2018-09-19T04:57:24.197Z,16.01
2018-09-19T04:58:24.147Z,16.05
2018-09-19T04:59:24.133Z,15.94
2018-09-19T05:00:24.049Z,16.09
2018-09-19T05:01:24.000Z,15.97
2018-09-19T05:02:23.952Z,16.02
2018-09-19T05:03:23.907Z,16.12
2018-09-19T05:04:23.856Z,16.01
2018-09-19T05:05:23.829Z,16.01
2018-09-19T05:06:23.760Z,16.09
2018-09-19T05:07:23.767Z,16.09
2018-09-19T05:08:23.668Z,16.06
2018-09-19T05:09:23.616Z,16.01
2018-09-19T05:10:23.588Z,15.97
2018-09-19T05:11:23.582Z,15.98
2018-09-19T05:12:23.467Z,15.98
2018-09-19T05:13:23.421Z,15.97
2018-09-19T05:14:23.372Z,15.95
2018-09-19T05:15:23.362Z,16.02
2018-09-19T05:16:23.277Z,16.00
2018-09-19T05:17:23.238Z,16.01
2018-09-19T05:18:23.182Z,15.97
2018-09-19T05:19:23.131Z,15.95
2018-09-19T05:20:23.116Z,16.02
2018-09-19T05:21:23.031Z,15.94
2018-09-19T05:22:22.986Z,15.92
2018-09-19T05:23:22.947Z,15.97
2018-09-19T05:24:22.895Z,16.01
2018-09-19T05:25:22.878Z,15.90
2018-09-19T05:26:22.789Z,15.98
2018-09-19T05:27:22.741Z,16.02
2018-09-19T05:28:22.690Z,15.97
2018-09-19T05:29:22.640Z,16.01
2018-09-19T05:30:22.620Z,16.05
2018-09-19T05:31:22.552Z,15.98
2018-09-19T05:32:22.513Z,15.97
2018-09-19T05:33:22.467Z,16.02
2018-09-19T05:34:22.403Z,16.10
2018-09-19T05:35:22.403Z,16.10
2018-09-19T05:36:22.306Z,16.10
2018-09-19T05:37:22.255Z,16.06
2018-09-19T05:38:22.208Z,16.06
2018-09-19T05:39:22.167Z,16.17
2018-09-19T05:40:22.155Z,16.06
2018-09-19T05:41:22.063Z,16.15
2018-09-19T05:42:22.014Z,16.09
2018-09-19T05:43:21.967Z,16.15
2018-09-19T05:44:21.918Z,16.20
2018-09-19T05:45:21.900Z,16.24
2018-09-19T05:46:21.874Z,16.25
2018-09-19T05:47:21.770Z,16.17
2018-09-19T05:48:21.726Z,16.17
2018-09-19T05:49:21.680Z,16.16
2018-09-19T05:50:21.652Z,16.20
2018-09-19T05:51:21.582Z,16.28
2018-09-19T05:52:21.531Z,16.25
2018-09-19T05:53:21.479Z,16.26
2018-09-19T05:54:21.451Z,16.29
2018-09-19T05:55:21.415Z,16.31
2018-09-19T05:56:21.334Z,16.36
2018-09-19T05:57:21.289Z,16.38
2018-09-19T05:58:21.237Z,16.34
2018-09-19T05:59:21.195Z,16.39
2018-09-19T06:00:21.170Z,16.43
2018-09-19T06:01:21.097Z,16.43
2018-09-19T06:02:21.049Z,16.47
2018-09-19T06:03:21.001Z,16.47
2018-09-19T06:04:20.956Z,16.51
2018-09-19T06:05:20.938Z,16.50
2018-09-19T06:06:20.859Z,16.49
2018-09-19T06:07:20.808Z,16.54
2018-09-19T06:08:20.755Z,16.51
2018-09-19T06:09:20.710Z,16.54
2018-09-19T06:10:20.701Z,16.47
2018-09-19T06:11:20.608Z,16.54
2018-09-19T06:12:20.561Z,16.54
2018-09-19T06:13:20.514Z,16.57
2018-09-19T06:14:20.467Z,16.53
2018-09-19T06:15:20.436Z,16.62
2018-09-19T06:16:20.398Z,16.64
2018-09-19T06:17:20.396Z,16.59
2018-09-19T06:18:20.277Z,16.59
2018-09-19T06:19:20.238Z,16.61
2018-09-19T06:20:20.180Z,16.69
2018-09-19T06:21:20.155Z,16.79
2018-09-19T06:22:20.079Z,16.83
2018-09-19T06:23:20.040Z,16.84
2018-09-19T06:24:19.986Z,16.87
2018-09-19T06:25:19.945Z,16.99
2018-09-19T06:26:19.923Z,16.90
2018-09-19T06:27:19.837Z,17.06
2018-09-19T06:28:19.790Z,17.12
2018-09-19T06:29:19.743Z,17.11
2018-09-19T06:30:19.701Z,17.19
2018-09-19T06:31:19.669Z,17.14
2018-09-19T06:32:19.600Z,17.29
2018-09-19T06:33:19.574Z,17.31
2018-09-19T06:34:19.509Z,17.38
2018-09-19T06:35:19.457Z,17.39
2018-09-19T06:36:19.432Z,17.44
2018-09-19T06:37:19.361Z,17.49
2018-09-19T06:38:19.314Z,17.53
2018-09-19T06:39:19.269Z,17.63
2018-09-19T06:40:19.260Z,17.67
2018-09-19T06:41:19.191Z,17.82
2018-09-19T06:42:19.122Z,17.88
2018-09-19T06:43:19.073Z,18.01
2018-09-19T06:44:19.029Z,17.98
2018-09-19T06:45:18.974Z,18.05
2018-09-19T06:46:18.968Z,18.10
2018-09-19T06:47:18.926Z,18.12
2018-09-19T06:48:18.832Z,18.09
2018-09-19T06:49:18.821Z,18.23
2018-09-19T06:50:18.767Z,18.26
2018-09-19T06:51:18.714Z,18.35
2018-09-19T06:52:18.655Z,18.46
2018-09-19T06:53:18.612Z,18.55
2018-09-19T06:54:18.552Z,18.56
2018-09-19T06:55:18.501Z,18.60
2018-09-19T06:56:18.474Z,18.78
2018-09-19T06:57:18.405Z,18.78
2018-09-19T06:58:18.358Z,18.78
2018-09-19T06:59:18.315Z,18.89
2018-09-19T07:00:18.264Z,18.98
2018-09-19T07:01:18.372Z,18.98
2018-09-19T07:02:18.173Z,19.09
2018-09-19T07:03:18.125Z,19.14
2018-09-19T07:04:18.078Z,19.18
2018-09-19T07:05:18.062Z,19.24
2018-09-19T07:06:18.157Z,19.31
2018-09-19T07:07:17.942Z,19.39
2018-09-19T07:08:17.895Z,19.42
2018-09-19T07:09:17.840Z,19.48
2018-09-19T07:10:17.790Z,19.48
2018-09-19T07:11:17.774Z,19.56
2018-09-19T07:12:17.696Z,19.60
2018-09-19T07:13:17.652Z,19.60
2018-09-19T07:14:17.611Z,19.69
2018-09-19T07:15:17.561Z,19.73
2018-09-19T07:16:17.536Z,19.82
2018-09-19T07:17:17.465Z,19.82
2018-09-19T07:18:17.418Z,19.85
2018-09-19T07:19:17.374Z,19.92
2018-09-19T07:20:17.324Z,19.88
2018-09-19T07:21:17.367Z,19.74
2018-09-19T07:22:17.226Z,19.71
2018-09-19T07:23:17.185Z,19.67
2018-09-19T07:24:17.155Z,19.81
2018-09-19T07:25:17.122Z,19.88
2018-09-19T07:26:17.047Z,19.85
2018-09-19T07:27:17.031Z,19.91
2018-09-19T07:28:16.953Z,19.94
2018-09-19T07:29:16.902Z,20.03
2018-09-19T07:30:16.865Z,20.07
2018-09-19T07:31:16.875Z,20.07
2018-09-19T07:32:16.802Z,20.07
2018-09-19T07:33:16.740Z,20.03
2018-09-19T07:34:16.694Z,20.01
2018-09-19T07:35:16.626Z,20.09
2018-09-19T07:36:16.649Z,20.07
2018-09-19T07:37:16.558Z,20.11
2018-09-19T07:38:16.480Z,20.19
2018-09-19T07:39:16.445Z,20.11
2018-09-19T07:40:16.419Z,20.24
2018-09-19T07:41:16.348Z,20.19
2018-09-19T07:42:16.335Z,20.18
2018-09-19T07:43:16.257Z,20.21
2018-09-19T07:44:16.214Z,20.28
2018-09-19T07:45:16.156Z,20.25
2018-09-19T07:46:16.120Z,20.18
2018-09-19T07:47:16.098Z,20.26
2018-09-19T07:48:16.017Z,20.19
2018-09-19T07:49:15.971Z,20.24
2018-09-19T07:50:15.923Z,20.04
2018-09-19T07:51:15.877Z,20.17
2018-09-19T07:52:15.863Z,20.03
2018-09-19T07:53:15.796Z,20.17
2018-09-19T07:54:15.745Z,20.22
2018-09-19T07:55:15.724Z,20.26
2018-09-19T07:56:15.644Z,20.39
2018-09-19T07:57:15.633Z,20.44
2018-09-19T07:58:15.563Z,20.62
2018-09-19T07:59:15.508Z,20.60
2018-09-19T08:00:15.469Z,20.65
2018-09-19T08:01:15.437Z,20.67
2018-09-19T08:02:15.396Z,20.78
2018-09-19T08:03:15.328Z,20.92
2018-09-19T08:04:15.282Z,20.97
2018-09-19T08:05:15.236Z,20.93
2018-09-19T08:06:15.191Z,20.93
2018-09-19T08:07:15.162Z,20.75
2018-09-19T08:08:15.092Z,20.80
2018-09-19T08:09:15.120Z,20.65
2018-09-19T08:10:15.002Z,20.69
2018-09-19T08:11:14.962Z,20.74
2018-09-19T08:12:14.949Z,20.71
2018-09-19T08:13:14.867Z,20.74
2018-09-19T08:14:14.817Z,20.89
2018-09-19T08:15:16.137Z,20.96
2018-09-19T08:16:14.733Z,21.12
2018-09-19T08:17:14.684Z,21.12
2018-09-19T08:18:14.656Z,21.18
2018-09-19T08:19:14.591Z,21.26
2018-09-19T08:20:14.538Z,21.33
2018-09-19T08:21:14.499Z,21.35
2018-09-19T08:22:14.459Z,21.45
2018-09-19T08:23:14.434Z,21.59
2018-09-19T08:24:14.359Z,21.58
2018-09-19T08:25:14.313Z,21.65
2018-09-19T08:26:14.267Z,21.74
2018-09-19T08:27:14.225Z,21.85
2018-09-19T08:28:14.201Z,21.96
2018-09-19T08:29:14.131Z,21.99
2018-09-19T08:30:14.087Z,21.92
2018-09-19T08:31:14.040Z,21.93
2018-09-19T08:32:13.994Z,21.95
2018-09-19T08:33:13.986Z,21.98
2018-09-19T08:34:13.904Z,21.92
2018-09-19T08:35:13.860Z,21.82
2018-09-19T08:36:13.812Z,21.70
2018-09-19T08:37:13.770Z,21.74
2018-09-19T08:38:13.744Z,21.73
2018-09-19T08:39:13.679Z,21.63
2018-09-19T08:40:13.631Z,21.69
2018-09-19T08:41:13.585Z,21.70
2018-09-19T08:42:13.552Z,21.73
2018-09-19T08:43:13.521Z,21.72
2018-09-19T08:44:13.447Z,21.70
2018-09-19T08:45:13.416Z,21.77
2018-09-19T08:46:13.358Z,21.82
2018-09-19T08:47:13.312Z,21.79
2018-09-19T08:48:13.286Z,21.77
2018-09-19T08:49:13.221Z,21.88
2018-09-19T08:50:13.173Z,21.92
2018-09-19T08:51:13.133Z,22.10
2018-09-19T08:52:13.085Z,22.13
2018-09-19T08:53:13.065Z,22.19
2018-09-19T08:54:12.991Z,22.15
2018-09-19T08:55:12.945Z,22.15
2018-09-19T08:56:12.901Z,22.20
2018-09-19T08:57:12.887Z,22.14
2018-09-19T08:58:12.831Z,22.22
2018-09-19T08:59:12.777Z,22.20
2018-09-19T09:00:12.718Z,22.44
2018-09-19T09:01:12.669Z,22.45
2018-09-19T09:02:12.630Z,22.36
2018-09-19T09:03:12.605Z,22.28
2018-09-19T09:04:12.539Z,22.25
2018-09-19T09:05:12.506Z,22.32
2018-09-19T09:06:12.445Z,22.23
2018-09-19T09:07:12.407Z,22.32
2018-09-19T09:08:12.385Z,22.41
2018-09-19T09:09:12.316Z,22.47
2018-09-19T09:10:12.269Z,22.50
2018-09-19T09:11:12.220Z,22.47
2018-09-19T09:12:12.243Z,22.50
2018-09-19T09:13:12.157Z,22.63
2018-09-19T09:14:12.087Z,22.58
2018-09-19T09:15:12.046Z,22.62
2018-09-19T09:16:11.995Z,22.58
2018-09-19T09:17:11.962Z,22.65
2018-09-19T09:18:11.964Z,22.69
2018-09-19T09:19:11.868Z,22.70
2018-09-19T09:20:11.817Z,22.73
2018-09-19T09:21:11.766Z,22.84
2018-09-19T09:22:11.731Z,22.83
2018-09-19T09:23:11.692Z,22.85
2018-09-19T09:24:11.695Z,22.83
2018-09-19T09:25:11.603Z,22.81
2018-09-19T09:26:11.591Z,22.75
2018-09-19T09:27:11.572Z,22.80
2018-09-19T09:28:11.460Z,22.90
2018-09-19T09:29:11.450Z,22.90
2018-09-19T09:30:11.368Z,22.91
2018-09-19T09:31:11.365Z,22.98
2018-09-19T09:32:11.271Z,22.96
2018-09-19T09:33:11.228Z,23.10
2018-09-19T09:34:11.263Z,23.14
2018-09-19T09:35:11.149Z,23.17
2018-09-19T09:36:11.148Z,23.06
2018-09-19T09:37:11.056Z,23.24
2018-09-19T09:38:11.014Z,23.18
2018-09-19T09:39:10.998Z,23.17
2018-09-19T09:40:10.944Z,23.27
2018-09-19T09:41:10.879Z,23.33
2018-09-19T09:42:10.863Z,23.34
2018-09-19T09:43:10.809Z,23.36
2018-09-19T09:44:10.793Z,23.41
2018-09-19T09:45:10.692Z,23.47
2018-09-19T09:46:10.751Z,23.44
2018-09-19T09:47:10.620Z,23.55
2018-09-19T09:48:10.677Z,23.55
2018-09-19T09:49:10.574Z,23.58
2018-09-19T09:50:10.475Z,23.55
2018-09-19T09:51:10.444Z,23.70
2018-09-19T09:52:10.391Z,23.62
2018-09-19T09:53:10.405Z,23.66
2018-09-19T09:54:10.352Z,23.73
2018-09-19T09:55:10.257Z,23.68
2018-09-19T09:56:10.207Z,23.77
2018-09-19T09:57:10.148Z,23.80
2018-09-19T09:58:10.117Z,23.80
2018-09-19T09:59:10.065Z,23.81
2018-09-19T10:00:10.051Z,23.89
2018-09-19T10:01:10.028Z,23.96
2018-09-19T10:02:09.929Z,23.95
2018-09-19T10:03:09.899Z,23.96
2018-09-19T10:04:09.851Z,24.00
2018-09-19T10:05:09.832Z,24.02
2018-09-19T10:06:09.748Z,24.08
2018-09-19T10:07:09.714Z,24.15
2018-09-19T10:08:09.660Z,24.13
2018-09-19T10:09:09.624Z,24.14
2018-09-19T10:10:09.601Z,24.20
2018-09-19T10:11:09.550Z,24.23
2018-09-19T10:12:09.484Z,24.25
2018-09-19T10:13:09.440Z,24.17
2018-09-19T10:14:09.395Z,24.23
2018-09-19T10:15:09.403Z,24.18
2018-09-19T10:16:09.315Z,24.26
2018-09-19T10:17:09.268Z,24.25
2018-09-19T10:18:09.224Z,24.25
2018-09-19T10:19:09.180Z,24.26
2018-09-19T10:20:09.158Z,24.21
2018-09-19T10:21:09.085Z,24.29
2018-09-19T10:22:09.041Z,24.36
2018-09-19T10:23:09.000Z,24.32
2018-09-19T10:24:08.960Z,24.39
2018-09-19T10:25:08.940Z,24.44
2018-09-19T10:26:08.864Z,24.44
2018-09-19T10:27:08.818Z,24.50
2018-09-19T10:28:08.778Z,24.57
2018-09-19T10:29:08.735Z,24.48
2018-09-19T10:30:08.720Z,24.40
2018-09-19T10:31:08.643Z,24.44
2018-09-19T10:32:09.205Z,24.48
2018-09-19T10:33:08.556Z,24.54
2018-09-19T10:34:08.504Z,24.54
2018-09-19T10:35:08.488Z,24.63
2018-09-19T10:36:08.428Z,24.73
2018-09-19T10:37:08.392Z,24.73
2018-09-19T10:38:08.355Z,24.73
2018-09-19T10:39:08.297Z,24.82
2018-09-19T10:40:08.286Z,24.77
2018-09-19T10:41:08.209Z,24.88
2018-09-19T10:42:08.153Z,24.82
2018-09-19T10:43:08.129Z,24.83
2018-09-19T10:44:08.066Z,24.82
2018-09-19T10:45:08.058Z,24.83
2018-09-19T10:46:07.981Z,24.89
2018-09-19T10:47:07.946Z,24.88
2018-09-19T10:48:07.901Z,24.95
2018-09-19T10:49:07.848Z,24.98
2018-09-19T10:50:07.840Z,25.10
2018-09-19T10:51:07.762Z,25.04
2018-09-19T10:52:07.722Z,25.10
2018-09-19T10:53:07.689Z,25.22
2018-09-19T10:54:07.627Z,25.18
2018-09-19T10:55:07.662Z,25.14
2018-09-19T10:56:07.539Z,25.11
2018-09-19T10:57:07.495Z,25.18
2018-09-19T10:58:07.457Z,25.13
2018-09-19T10:59:07.428Z,25.20
2018-09-19T11:00:07.372Z,25.18
2018-09-19T11:01:07.366Z,25.26
2018-09-19T11:02:07.284Z,25.25
2018-09-19T11:03:07.243Z,25.28
2018-09-19T11:04:07.203Z,25.30
2018-09-19T11:05:07.145Z,25.37
2018-09-19T11:06:07.138Z,25.43
2018-09-19T11:07:07.060Z,25.43
2018-09-19T11:08:07.022Z,25.51
2018-09-19T11:09:06.965Z,25.60
2018-09-19T11:10:06.928Z,25.62
2018-09-19T11:11:06.910Z,25.63
2018-09-19T11:12:06.839Z,25.65
2018-09-19T11:13:06.796Z,25.69
2018-09-19T11:14:06.749Z,25.77
2018-09-19T11:15:06.708Z,25.75
2018-09-19T11:16:06.686Z,25.82
2018-09-19T11:17:06.646Z,25.74
2018-09-19T11:18:06.575Z,25.82
2018-09-19T11:19:06.534Z,25.85
2018-09-19T11:20:06.487Z,25.93
2018-09-19T11:21:06.477Z,25.92
2018-09-19T11:22:06.399Z,25.84
2018-09-19T11:23:06.360Z,25.92
2018-09-19T11:24:06.310Z,25.92
2018-09-19T11:25:06.268Z,25.90
2018-09-19T11:26:06.225Z,25.92
2018-09-19T11:27:06.210Z,25.84
2018-09-19T11:28:06.141Z,25.90
2018-09-19T11:29:06.100Z,25.95
2018-09-19T11:30:06.053Z,26.04
2018-09-19T11:31:06.019Z,26.00
2018-09-19T11:32:05.989Z,26.04
2018-09-19T11:33:05.920Z,26.11
2018-09-19T11:34:05.888Z,26.23
2018-09-19T11:35:05.847Z,26.19
2018-09-19T11:36:05.795Z,26.07
2018-09-19T11:37:05.773Z,26.19
2018-09-19T11:38:05.710Z,26.15
2018-09-19T11:39:05.665Z,26.10
2018-09-19T11:40:05.619Z,26.19
2018-09-19T11:41:05.577Z,26.15
2018-09-19T11:42:05.556Z,26.12
2018-09-19T11:43:05.493Z,26.02
2018-09-19T11:44:05.446Z,25.99
2018-09-19T11:45:05.407Z,26.06
2018-09-19T11:46:05.363Z,26.11
2018-09-19T11:47:05.364Z,26.11
2018-09-19T11:48:05.277Z,26.06
2018-09-19T11:49:05.237Z,26.03
2018-09-19T11:50:05.188Z,25.88
2018-09-19T11:51:05.154Z,25.90
2018-09-19T11:52:05.129Z,25.90
2018-09-19T11:53:05.061Z,25.93
2018-09-19T11:54:05.020Z,25.81
2018-09-19T11:55:04.976Z,25.85
2018-09-19T11:56:04.931Z,25.77
2018-09-19T11:57:04.920Z,25.81
2018-09-19T11:58:04.884Z,25.82
2018-09-19T11:59:04.802Z,25.77
2018-09-19T12:00:04.763Z,25.81
2018-09-19T12:01:04.716Z,25.75
2018-09-19T12:02:04.751Z,25.78
2018-09-19T12:03:04.627Z,25.77
2018-09-19T12:04:04.586Z,25.78
2018-09-19T12:05:04.540Z,25.74
2018-09-19T12:06:04.500Z,25.84
2018-09-19T12:07:04.459Z,26.00
2018-09-19T12:08:04.447Z,25.96
2018-09-19T12:09:04.377Z,26.19
2018-09-19T12:10:04.331Z,26.11
2018-09-19T12:11:04.311Z,26.23
2018-09-19T12:12:04.253Z,26.31
2018-09-19T12:13:04.228Z,26.40
2018-09-19T12:14:04.158Z,26.40
2018-09-19T12:15:04.120Z,26.48
2018-09-19T12:16:04.073Z,26.55
2018-09-19T12:17:04.028Z,26.59
2018-09-19T12:18:04.011Z,26.59
2018-09-19T12:19:03.945Z,26.62
2018-09-19T12:20:03.901Z,26.71
2018-09-19T12:21:03.856Z,26.72
2018-09-19T12:22:03.816Z,26.65
2018-09-19T12:23:03.802Z,26.67
2018-09-19T12:24:03.732Z,26.68
2018-09-19T12:25:03.689Z,26.57
2018-09-19T12:26:03.649Z,26.59
2018-09-19T12:27:03.608Z,26.50
2018-09-19T12:28:03.595Z,26.52
2018-09-19T12:29:03.524Z,26.50
2018-09-19T12:30:03.475Z,26.50
2018-09-19T12:31:03.428Z,26.55
2018-09-19T12:32:03.391Z,26.41
2018-09-19T12:33:03.372Z,26.49
2018-09-19T12:34:03.304Z,26.53
2018-09-19T12:35:03.260Z,26.56
2018-09-19T12:36:03.217Z,26.49
2018-09-19T12:37:03.177Z,26.48
2018-09-19T12:38:03.167Z,26.56
2018-09-19T12:39:03.090Z,26.59
2018-09-19T12:40:03.047Z,26.68
2018-09-19T12:41:03.006Z,26.71
2018-09-19T12:42:02.964Z,26.67
2018-09-19T12:43:02.946Z,26.63
2018-09-19T12:44:02.874Z,26.71
2018-09-19T12:45:02.832Z,26.72
2018-09-19T12:46:02.794Z,26.78
2018-09-19T12:47:02.746Z,26.77
2018-09-19T12:48:02.732Z,26.77
2018-09-19T12:49:02.667Z,26.77
2018-09-19T12:50:02.622Z,26.74
2018-09-19T12:51:02.579Z,26.72
2018-09-19T12:52:02.534Z,26.65